Stockton, AL (36579)

11:14 AM CDT on July 30, 2014 (GMT -0500)
Chalet Ridge (KALBAYMI2) Elev 285 ft | 30.89 °N, 87.74 °W | Change Station

Current weather conditions updated 18 seconds ago

Partly Cloudy
Partly Cloudy
88.2 °F
Feels Like 89 °F
N
2.7
Wind Variable Wind from ENE
Gusts 6.4 mph

Today is forecast to be Cooler than yesterday.

Today
High -- | Low -- °F
--% Chance of Precip.
Yesterday
High -- | Low -- °F
Precip. -- in
6:07 AM 7:47 PM
Waxing Crescent, 12% visible
Pressure 30.08 in
Visibility 10.0 miles
Clouds Few 5500 ft
Heat Index 89 °F
Dew Point 62 °F
Humidity 42%
Rainfall 0.00 in
Snow Depth Not available.
UV 10 out of 12
Pollen 4.30 out of 12
Air Quality Not available.
Flu Activity Not available.
METAR KBFM 301553Z 04005KT 10SM FEW055 27/16 A3008 RMK AO2 SLP186 T02670161

More Conditions Fewer Conditions

Pressure 30.08 in
Visibility 10.0 miles
Clouds Few 5500 ft
Heat Index 89 °F
Dew Point 62 °F
Humidity 42%
Rainfall 0.00 in
Snow Depth Not available.
UV 10 out of 12
Pollen 4.30 out of 12
Air Quality Not available.
Flu Activity Not available.
METAR KBFM 301553Z 04005KT 10SM FEW055 27/16 A3008 RMK AO2 SLP186 T02670161

More Conditions Fewer Conditions

10-Day Weather Forecast

Almanac

Astronomy

Jul. 30, 2014 Rise Set
Actual Time 6:07 AM CDT 7:47 PM CDT
Civil Twilight 5:40 AM CDT 8:14 PM CDT
Nautical Twilight 5:08 AM CDT 8:46 PM CDT
Astronomical Twilight 4:35 AM CDT 9:19 PM CDT
Moon 9:21 AM CDT 9:49 PM CDT
Length of Visible Light 14h 33m
Length of Day
13h 40m
Tomorrow will be 1m 22s shorter.
Waxing Crescent, 12% of the Moon is Illuminated
Today
Waxing Crescent
Aug 3
First Quarter
Aug 10
Full
Aug 17
Last Quarter
Aug 25
New

Today's Extremes

State Highs State Lows

Community

WunderPhotos

Upload Photos

1,739,121 photos uploaded!

WunderBlogs® & News

By Dr. Jeff Masters
Director of Meteorology, Weather Underground
By Kari Strenfel
Meteorologist, Weather Underground
By Christopher C. Burt
Weather Historian, Weather Underground
July 30, 2014
July 30, 2014
July 30, 2014

Nearby

Snow Depth

Station Depth Elevation
No new snow has been reported.

Earthquake Activity

City Distance Mag. Time & Date
No recent earthquake activity has been reported nearby.
Minimum magnitude displayed is 2.5.

Coastal Water Temperatures

Place Temperature
Mobile State Docks, AL 82.9 °F
Coast Guard Sector Mobile, AL 82.9 °F

Nearby Weather Stations

Station Location Temp. Heat Index Dew Point Humidity Wind Precip. Elev Updated Type
Chalet Ridge, Bay Minette, AL 88.2 °F 89 °F 62 °F 42% ENE  at  2.7 mph 0.00 in / hr 285 ft 11:14 AM CDT Rapid Fire
MesoWest PERDIDO RIV FARMS , Atmore, AL 74 °F 77 °F 57 °F 57% NE  at  6 mph 0.00 in / hr 298 ft 10:00 AM CDT MADIS
Markwood, Citronelle, AL 79.6 °F 81 °F 62 °F 55% East  at  0.0 mph 0.00 in / hr 308 ft 11:14 AM CDT Normal

Show More Stations Show Fewer Stations